createdAt,value
2023-05-05T00:00:25.135Z,19093.1426
2023-05-05T00:01:33.511Z,19090.6426
2023-05-05T00:02:41.534Z,19089.5000
2023-05-05T00:03:49.629Z,19088.6426
2023-05-05T00:04:57.613Z,19088.5000
2023-05-05T00:06:05.649Z,19091.8574
2023-05-05T00:07:13.661Z,19092.8574
2023-05-05T00:08:21.754Z,19091.4277
2023-05-05T00:09:29.757Z,19093.6426
2023-05-05T00:10:37.860Z,19088.2852
2023-05-05T00:11:45.892Z,19089.7148
2023-05-05T00:12:53.851Z,19094.5000
2023-05-05T00:14:01.885Z,19097.0000
2023-05-05T00:15:09.916Z,19100.8574
2023-05-05T00:16:18.103Z,19102.7148
2023-05-05T00:17:26.299Z,19104.8574
2023-05-05T00:18:34.252Z,19105.7148
2023-05-05T00:19:42.343Z,19110.0000
2023-05-05T00:20:50.368Z,19113.1426
2023-05-05T00:21:58.400Z,19110.7852
2023-05-05T00:23:06.472Z,19110.5000
2023-05-05T00:24:14.711Z,19107.6426
2023-05-05T00:25:22.644Z,19109.8574
2023-05-05T00:26:30.606Z,19107.7852
2023-05-05T00:27:40.236Z,19105.8574
2023-05-05T00:28:51.488Z,19107.0664
2023-05-05T00:29:59.832Z,19096.3574
2023-05-05T00:31:07.865Z,19099.1426
2023-05-05T00:32:15.824Z,19101.2148
2023-05-05T00:33:23.919Z,19097.9277
2023-05-05T00:34:31.955Z,19103.2148
2023-05-05T00:35:39.976Z,19102.2148
2023-05-05T00:36:48.061Z,19103.3574
2023-05-05T00:37:56.157Z,19101.7852
2023-05-05T00:39:04.234Z,19104.4277
2023-05-05T00:40:12.246Z,19101.0000
2023-05-05T00:41:20.171Z,19103.2852
2023-05-05T00:42:28.217Z,19103.0000
2023-05-05T00:43:36.273Z,19105.7148
2023-05-05T00:44:44.715Z,19108.6426
2023-05-05T00:45:52.520Z,19109.2852
2023-05-05T00:47:00.770Z,19107.5000
2023-05-05T00:48:08.796Z,19106.0723
2023-05-05T00:49:16.851Z,19106.7852
2023-05-05T00:50:24.773Z,19106.0000
2023-05-05T00:51:32.852Z,19108.2148
2023-05-05T00:52:40.996Z,19106.6426
2023-05-05T00:53:48.990Z,19106.9277
2023-05-05T00:54:57.053Z,19102.2148
2023-05-05T00:56:04.960Z,19105.0723
2023-05-05T00:57:13.029Z,19105.4277
2023-05-05T00:58:21.100Z,19102.0000
2023-05-05T00:59:29.305Z,19100.3574
2023-05-05T01:00:37.334Z,19096.9277
2023-05-05T01:01:45.399Z,19094.2852
2023-05-05T01:02:53.588Z,19088.1426
2023-05-05T01:04:01.742Z,19091.7148
2023-05-05T01:05:09.585Z,19091.5723
2023-05-05T01:06:17.677Z,19093.1426
2023-05-05T01:07:25.695Z,19095.0000
2023-05-05T01:08:33.779Z,19094.2148
2023-05-05T01:09:41.869Z,19096.2852
2023-05-05T01:10:49.756Z,19101.7852
2023-05-05T01:11:57.813Z,19100.3574
2023-05-05T01:13:05.961Z,19105.5723
2023-05-05T01:14:14.087Z,19106.7852
2023-05-05T01:15:22.139Z,19109.3574
2023-05-05T01:16:30.199Z,19110.8574
2023-05-05T01:17:38.309Z,19112.2148
2023-05-05T01:18:46.319Z,19112.4277
2023-05-05T01:19:54.611Z,19113.7852
2023-05-05T01:21:02.508Z,19115.9277
2023-05-05T01:22:10.631Z,19113.2148
2023-05-05T01:23:18.628Z,19116.3574
2023-05-05T01:24:26.771Z,19116.8574
2023-05-05T01:25:34.618Z,19118.8574
2023-05-05T01:26:42.680Z,19115.1426
2023-05-05T01:27:50.721Z,19118.3574
2023-05-05T01:28:58.945Z,19120.0000
2023-05-05T01:30:07.304Z,19119.1426
2023-05-05T01:31:15.080Z,19116.3574
2023-05-05T01:32:23.114Z,19118.5000
2023-05-05T01:33:31.151Z,19119.9277
2023-05-05T01:34:39.207Z,19119.1426
2023-05-05T01:35:47.474Z,19115.5723
2023-05-05T01:36:55.337Z,19116.0723
2023-05-05T01:38:03.402Z,19117.2852
2023-05-05T01:39:11.466Z,19118.6426
2023-05-05T01:40:19.447Z,19113.7852
2023-05-05T01:41:27.416Z,19114.8574
2023-05-05T01:42:35.538Z,19116.8574
2023-05-05T01:43:43.754Z,19118.5000
2023-05-05T01:44:51.792Z,19119.0000
2023-05-05T01:45:59.873Z,19119.8574
2023-05-05T01:47:07.923Z,19119.2148
2023-05-05T01:48:15.939Z,19116.4277
2023-05-05T01:49:23.990Z,19114.6426
2023-05-05T01:50:32.086Z,19115.2852
2023-05-05T01:51:40.117Z,19117.1426
2023-05-05T01:52:48.290Z,19113.5000
2023-05-05T01:53:56.323Z,19115.5723
2023-05-05T01:55:04.168Z,19117.3574
2023-05-05T01:56:12.206Z,19117.5723
2023-05-05T01:57:20.276Z,19117.7852
2023-05-05T01:58:28.472Z,19119.1426
2023-05-05T01:59:36.504Z,19120.3574
2023-05-05T02:00:44.794Z,19121.3574
2023-05-05T02:01:52.644Z,19129.0000
2023-05-05T02:03:00.725Z,19123.7852
2023-05-05T02:04:08.737Z,19130.1426
2023-05-05T02:05:16.948Z,19130.9277
2023-05-05T02:06:24.887Z,19134.5000
2023-05-05T02:07:32.928Z,19133.3574
2023-05-05T02:08:41.232Z,19134.5723
2023-05-05T02:09:48.970Z,19133.2148
2023-05-05T02:10:57.018Z,19134.7148
2023-05-05T02:12:05.103Z,19134.2852
2023-05-05T02:13:13.384Z,19136.5000
2023-05-05T02:14:21.304Z,19141.1426
2023-05-05T02:15:29.426Z,19141.3574
2023-05-05T02:16:37.637Z,19142.5723
2023-05-05T02:17:45.551Z,19142.0000
2023-05-05T02:18:53.562Z,19144.3574
2023-05-05T02:20:01.714Z,19147.2148
2023-05-05T02:21:09.695Z,19152.0723
2023-05-05T02:22:17.720Z,19147.3574
2023-05-05T02:23:25.892Z,19149.4277
2023-05-05T02:24:33.728Z,19150.8574
2023-05-05T02:25:41.806Z,19150.4277
2023-05-05T02:26:49.846Z,19154.1426
2023-05-05T02:27:58.055Z,19156.7852
2023-05-05T02:29:06.070Z,19153.9277
2023-05-05T02:30:14.207Z,19156.4277
2023-05-05T02:31:22.209Z,19151.3574
2023-05-05T02:32:30.464Z,19154.2852
2023-05-05T02:33:38.320Z,19151.1426
2023-05-05T02:34:46.374Z,19150.7148
2023-05-05T02:35:54.480Z,19150.5723
2023-05-05T02:37:02.484Z,19152.7852
2023-05-05T02:38:10.639Z,19150.3574
2023-05-05T02:39:18.484Z,19151.0000
2023-05-05T02:40:26.563Z,19151.2148
2023-05-05T02:41:34.642Z,19153.0723
2023-05-05T02:42:42.709Z,19152.7852
2023-05-05T02:43:50.752Z,19152.0000
2023-05-05T02:44:58.958Z,19154.2148
2023-05-05T02:46:07.058Z,19149.5000
2023-05-05T02:47:15.040Z,19150.2148
2023-05-05T02:48:23.138Z,19151.1426
2023-05-05T02:49:31.294Z,19148.2148
2023-05-05T02:50:39.299Z,19146.0723
2023-05-05T02:51:47.315Z,19147.7148
2023-05-05T02:52:55.364Z,19147.5000
2023-05-05T02:54:03.366Z,19146.0000
2023-05-05T02:55:11.594Z,19149.1426
2023-05-05T02:56:19.452Z,19144.7852
2023-05-05T02:57:27.444Z,19145.7852
2023-05-05T02:58:35.547Z,19146.0723
2023-05-05T02:59:43.756Z,19146.3574
2023-05-05T03:00:51.827Z,19144.2852
2023-05-05T03:01:59.909Z,19143.0000
2023-05-05T03:03:07.918Z,19141.6426
2023-05-05T03:04:15.950Z,19140.9277
2023-05-05T03:05:23.995Z,19143.0000
2023-05-05T03:06:32.121Z,19144.7148
2023-05-05T03:07:40.148Z,19144.8574
2023-05-05T03:08:48.188Z,19145.4277
2023-05-05T03:09:56.272Z,19143.7148
2023-05-05T03:11:04.258Z,19146.0000
2023-05-05T03:12:12.261Z,19146.4277
2023-05-05T03:13:20.356Z,19143.7852
2023-05-05T03:14:29.583Z,19142.8574
2023-05-05T03:15:41.510Z,19141.0000
2023-05-05T03:16:49.560Z,19143.4277
2023-05-05T03:17:57.670Z,19138.8574
2023-05-05T03:19:05.662Z,19139.5723
2023-05-05T03:20:13.703Z,19140.5723
2023-05-05T03:21:21.921Z,19138.7148
2023-05-05T03:22:29.848Z,19137.5000
2023-05-05T03:23:37.843Z,19141.3574
2023-05-05T03:24:45.776Z,19139.5723
2023-05-05T03:25:53.873Z,19137.7148
2023-05-05T03:27:01.964Z,19138.8574
2023-05-05T03:28:10.112Z,19135.7148
2023-05-05T03:29:18.198Z,19136.5000
2023-05-05T03:30:26.285Z,19136.5000
2023-05-05T03:31:34.362Z,19137.4277
2023-05-05T03:32:42.358Z,19141.2852
2023-05-05T03:33:50.438Z,19141.5723
2023-05-05T03:34:58.636Z,19142.7852
2023-05-05T03:36:06.544Z,19147.6426
2023-05-05T03:37:14.800Z,19148.0000
2023-05-05T03:38:22.627Z,19140.2148
2023-05-05T03:39:30.576Z,19138.7148
2023-05-05T03:40:44.127Z,19139.0723
2023-05-05T03:41:51.764Z,19139.2676
2023-05-05T03:42:59.793Z,19138.2852
2023-05-05T03:44:07.855Z,19136.1426
2023-05-05T03:45:16.049Z,19135.7148
2023-05-05T03:46:23.969Z,19132.3574
2023-05-05T03:47:32.005Z,19136.1426
2023-05-05T03:48:40.042Z,19132.9277
2023-05-05T03:49:48.126Z,19127.5000
2023-05-05T03:50:56.154Z,19123.9277
2023-05-05T03:52:04.248Z,19122.0723
2023-05-05T03:53:12.165Z,19121.0723
2023-05-05T03:54:20.206Z,19115.3574
2023-05-05T03:55:28.270Z,19115.5723
2023-05-05T03:56:36.513Z,19113.0000
2023-05-05T03:57:44.526Z,19115.4277
2023-05-05T03:58:52.579Z,19112.9277
2023-05-05T04:00:00.648Z,19109.7852
2023-05-05T04:01:08.697Z,19106.1426
2023-05-05T04:02:18.630Z,19113.8574
2023-05-05T04:03:29.707Z,19115.9336
2023-05-05T04:04:37.697Z,19120.0000
2023-05-05T04:05:45.761Z,19121.1426
2023-05-05T04:06:53.788Z,19120.0723
2023-05-05T04:08:01.794Z,19122.0000
2023-05-05T04:09:09.818Z,19129.7148
2023-05-05T04:10:18.040Z,19137.3574
2023-05-05T04:11:26.141Z,19142.9277
2023-05-05T04:12:34.225Z,19146.7148
2023-05-05T04:13:42.452Z,19147.0723
2023-05-05T04:14:50.314Z,19146.1426
2023-05-05T04:15:58.467Z,19139.7852
2023-05-05T04:17:06.374Z,19142.0000
2023-05-05T04:18:14.465Z,19139.8574
2023-05-05T04:19:22.539Z,19139.2148
2023-05-05T04:20:30.528Z,19137.3574
2023-05-05T04:21:38.564Z,19135.8574
2023-05-05T04:22:46.602Z,19134.8574
2023-05-05T04:23:54.620Z,19136.2852
2023-05-05T04:25:02.768Z,19138.4277
2023-05-05T04:26:10.856Z,19134.6426
2023-05-05T04:27:18.931Z,19129.6426
2023-05-05T04:28:27.064Z,19131.2852
2023-05-05T04:29:35.104Z,19125.4277
2023-05-05T04:30:43.131Z,19125.7148
2023-05-05T04:31:51.249Z,19125.5723
2023-05-05T04:32:59.321Z,19123.1426
2023-05-05T04:34:07.385Z,19119.7148
2023-05-05T04:35:15.341Z,19117.2852
2023-05-05T04:36:23.288Z,19116.1426
2023-05-05T04:37:31.386Z,19116.2852
2023-05-05T04:38:39.407Z,19123.7148
2023-05-05T04:39:47.528Z,19122.3574
2023-05-05T04:40:55.621Z,19117.2148
2023-05-05T04:42:03.683Z,19105.5000
2023-05-05T04:43:11.811Z,19104.5000
2023-05-05T04:44:19.794Z,19102.5723
2023-05-05T04:45:27.825Z,19101.4277
2023-05-05T04:46:35.918Z,19104.9277
2023-05-05T04:47:44.131Z,19105.5723
2023-05-05T04:48:52.123Z,19110.2852
2023-05-05T04:50:00.125Z,19108.5000
2023-05-05T04:51:08.077Z,19103.1426
2023-05-05T04:52:16.140Z,19102.8574
2023-05-05T04:53:24.212Z,19097.7148
2023-05-05T04:54:32.337Z,19089.0000
2023-05-05T04:55:40.357Z,19076.7148
2023-05-05T04:56:48.403Z,19074.5723
2023-05-05T04:57:56.558Z,19071.1426
2023-05-05T04:59:04.548Z,19075.7148
2023-05-05T05:00:12.576Z,19077.9277
2023-05-05T05:01:20.664Z,19079.7852
2023-05-05T05:02:28.774Z,19082.2852
2023-05-05T05:03:36.864Z,19091.3574
2023-05-05T05:04:44.865Z,19104.3574
2023-05-05T05:05:52.967Z,19113.7148
2023-05-05T05:07:00.855Z,19122.8574
2023-05-05T05:08:08.974Z,19128.4277
2023-05-05T05:09:17.157Z,19126.5000
2023-05-05T05:10:25.186Z,19124.9277
2023-05-05T05:11:33.237Z,19116.9277
2023-05-05T05:12:41.288Z,19113.0000
2023-05-05T05:13:49.386Z,19115.6426
2023-05-05T05:14:57.512Z,19116.8574
2023-05-05T05:16:05.582Z,19118.7148
2023-05-05T05:17:13.456Z,19112.2852
2023-05-05T05:18:21.596Z,19103.5000
2023-05-05T05:19:29.693Z,19102.0723
2023-05-05T05:20:37.546Z,19105.6426
2023-05-05T05:21:45.628Z,19110.7148
2023-05-05T05:22:53.711Z,19103.5723
2023-05-05T05:24:01.789Z,19106.4277
2023-05-05T05:25:09.913Z,19110.9277
2023-05-05T05:26:17.974Z,19112.5000
2023-05-05T05:27:26.010Z,19111.3574
2023-05-05T05:28:34.209Z,19108.7148
2023-05-05T05:29:42.187Z,19106.6426
2023-05-05T05:30:50.249Z,19101.2148
2023-05-05T05:31:58.392Z,19099.0723
2023-05-05T05:33:06.437Z,19101.3574
2023-05-05T05:34:14.463Z,19103.8574
2023-05-05T05:35:22.405Z,19104.7852
2023-05-05T05:36:30.472Z,19103.0723
2023-05-05T05:37:38.573Z,19102.2148
2023-05-05T05:38:46.605Z,19099.2148
2023-05-05T05:39:54.710Z,19098.9277
2023-05-05T05:41:02.854Z,19096.7148
2023-05-05T05:42:10.841Z,19094.2148
2023-05-05T05:43:18.983Z,19096.7148
2023-05-05T05:44:27.001Z,19090.0723
2023-05-05T05:45:35.228Z,19089.6426
2023-05-05T05:46:43.151Z,19084.4277
2023-05-05T05:47:51.363Z,19079.2852
2023-05-05T05:48:59.327Z,19078.2148
2023-05-05T05:50:07.438Z,19073.7852
2023-05-05T05:51:15.222Z,19076.2148
2023-05-05T05:52:23.265Z,19082.1426
2023-05-05T05:53:31.517Z,19077.0000
2023-05-05T05:54:39.380Z,19085.5723
2023-05-05T05:55:47.719Z,19084.0000
2023-05-05T05:56:55.580Z,19087.6426
2023-05-05T05:58:03.720Z,19093.6426
2023-05-05T05:59:11.786Z,19094.5000
2023-05-05T06:00:19.763Z,19095.2852
2023-05-05T06:01:27.840Z,19095.5000
2023-05-05T06:02:35.934Z,19098.2852
2023-05-05T06:03:44.046Z,19100.7148
2023-05-05T06:04:51.927Z,19102.2148
2023-05-05T06:05:59.976Z,19102.8574
2023-05-05T06:07:08.006Z,19101.0723
2023-05-05T06:08:16.171Z,19100.7148
2023-05-05T06:09:24.330Z,19099.7852
2023-05-05T06:10:32.524Z,19095.7148
2023-05-05T06:11:45.258Z,19096.1992
2023-05-05T06:12:53.652Z,19092.1426
2023-05-05T06:14:01.414Z,19090.5000
2023-05-05T06:15:09.397Z,19091.1426
2023-05-05T06:16:17.538Z,19092.0000
2023-05-05T06:17:25.497Z,19089.2852
2023-05-05T06:18:33.547Z,19084.7148
2023-05-05T06:19:41.535Z,19075.5723
2023-05-05T06:20:49.609Z,19070.3574
2023-05-05T06:21:57.908Z,19068.0000
2023-05-05T06:23:05.872Z,19068.3574
2023-05-05T06:24:13.912Z,19068.4277
2023-05-05T06:25:21.981Z,19071.3574
2023-05-05T06:26:30.003Z,19076.7148
2023-05-05T06:27:38.022Z,19079.1426
2023-05-05T06:28:46.112Z,19074.7148
2023-05-05T06:29:54.250Z,19070.7852
2023-05-05T06:31:02.303Z,19074.2148
2023-05-05T06:32:10.286Z,19066.7148
2023-05-05T06:33:18.244Z,19068.4277
2023-05-05T06:34:26.295Z,19076.4277
2023-05-05T06:35:34.388Z,19076.2148
2023-05-05T06:36:42.466Z,19083.4277
2023-05-05T06:37:50.607Z,19089.4277
2023-05-05T06:38:58.618Z,19079.8574
2023-05-05T06:40:06.861Z,19081.2852
2023-05-05T06:41:14.826Z,19079.2148
2023-05-05T06:42:22.827Z,19080.0000
2023-05-05T06:43:30.938Z,19080.9277
2023-05-05T06:44:38.906Z,19084.2148
2023-05-05T06:45:47.212Z,19085.9277
2023-05-05T06:46:55.088Z,19090.7148
2023-05-05T06:48:03.059Z,19091.2148
2023-05-05T06:49:11.050Z,19093.5723
2023-05-05T06:50:19.103Z,19094.8574
2023-05-05T06:51:27.364Z,19098.7852
2023-05-05T06:52:35.412Z,19097.5000
2023-05-05T06:53:43.405Z,19093.6426
2023-05-05T06:54:51.507Z,19093.0723
2023-05-05T06:55:59.518Z,19094.4277
2023-05-05T06:57:07.565Z,19087.0000
2023-05-05T06:58:15.614Z,19086.2852
2023-05-05T06:59:23.681Z,19087.7148
2023-05-05T07:00:31.736Z,19084.3574
2023-05-05T07:01:39.880Z,19082.2852
2023-05-05T07:02:47.771Z,19071.0723
2023-05-05T07:03:55.877Z,19046.2852
2023-05-05T07:05:03.896Z,19035.5723
2023-05-05T07:06:12.009Z,19047.7148
2023-05-05T07:07:20.147Z,19052.5723
2023-05-05T07:08:28.190Z,19061.6426
2023-05-05T07:09:36.304Z,19061.8574
2023-05-05T07:10:44.296Z,19054.0000
2023-05-05T07:11:52.397Z,19062.5723
2023-05-05T07:13:00.444Z,19066.6426
2023-05-05T07:14:08.438Z,19065.3574
2023-05-05T07:15:27.614Z,19059.7852
2023-05-05T07:16:29.372Z,19065.1992
2023-05-05T07:17:37.383Z,19069.4277
2023-05-05T07:18:45.432Z,19074.8574
2023-05-05T07:19:53.753Z,19078.3574
2023-05-05T07:21:01.630Z,19077.4277
2023-05-05T07:22:09.637Z,19075.5723
2023-05-05T07:23:17.849Z,19071.7148
2023-05-05T07:24:25.803Z,19074.3574
2023-05-05T07:25:33.948Z,19079.0723
2023-05-05T07:26:42.004Z,19086.5000
2023-05-05T07:27:50.063Z,19085.2148
2023-05-05T07:28:58.082Z,19080.1426
2023-05-05T07:30:10.057Z,19081.8574
2023-05-05T07:31:18.927Z,19081.3340
2023-05-05T07:32:27.096Z,19083.3574
2023-05-05T07:33:35.074Z,19089.0723
2023-05-05T07:34:43.271Z,19085.8574
2023-05-05T07:35:51.399Z,19086.7852
2023-05-05T07:36:59.410Z,19087.0000
2023-05-05T07:38:08.719Z,19084.8574
2023-05-05T07:39:20.332Z,19083.6660
2023-05-05T07:40:28.371Z,19085.8574
2023-05-05T07:41:36.462Z,19083.6426
2023-05-05T07:42:44.626Z,19069.2852
2023-05-05T07:43:52.677Z,19065.9277
2023-05-05T07:45:00.470Z,19072.1426
2023-05-05T07:46:08.548Z,19078.0000
2023-05-05T07:47:16.629Z,19072.2148
2023-05-05T07:48:24.769Z,19069.1426
2023-05-05T07:49:32.874Z,19068.0723
2023-05-05T07:50:40.905Z,19064.4277
2023-05-05T07:51:49.127Z,19055.5000
2023-05-05T07:53:06.250Z,19061.2852
2023-05-05T07:54:09.916Z,19065.0000
2023-05-05T07:55:18.018Z,19065.6426
2023-05-05T07:56:26.068Z,19066.7148
2023-05-05T07:57:34.239Z,19071.5723
2023-05-05T07:58:42.035Z,19076.6426
2023-05-05T07:59:50.067Z,19075.4277
2023-05-05T08:00:58.141Z,19072.7852
2023-05-05T08:02:06.345Z,19076.4277
2023-05-05T08:03:14.441Z,19077.1426
2023-05-05T08:04:22.428Z,19072.7148
2023-05-05T08:05:30.502Z,19071.4277
2023-05-05T08:06:38.506Z,19073.5723
2023-05-05T08:07:46.800Z,19066.5000
2023-05-05T08:08:54.665Z,19057.5723
2023-05-05T08:10:02.718Z,19053.0000
2023-05-05T08:11:10.834Z,19051.4277
2023-05-05T08:12:18.868Z,19058.2148
2023-05-05T08:13:26.809Z,19061.0000
2023-05-05T08:14:34.840Z,19060.7852
2023-05-05T08:15:42.910Z,19061.6426
2023-05-05T08:16:51.064Z,19048.2148
2023-05-05T08:17:59.190Z,19047.2852
2023-05-05T08:19:17.670Z,19043.3574
2023-05-05T08:20:20.182Z,19037.4668
2023-05-05T08:21:28.164Z,19030.2852
2023-05-05T08:22:36.282Z,19022.1426
2023-05-05T08:23:44.300Z,19007.8574
2023-05-05T08:24:52.634Z,18989.3574
2023-05-05T08:26:00.285Z,18981.0000
2023-05-05T08:27:08.339Z,18967.0000
2023-05-05T08:28:16.440Z,18948.5000
2023-05-05T08:29:24.641Z,18946.4277
2023-05-05T08:30:32.927Z,18944.6426
2023-05-05T08:31:40.751Z,18945.3574
2023-05-05T08:32:48.910Z,18948.0000
2023-05-05T08:33:56.958Z,18948.7852
2023-05-05T08:35:04.927Z,18954.4277
2023-05-05T08:36:12.932Z,18960.2852
2023-05-05T08:37:21.071Z,18964.6426
2023-05-05T08:38:29.066Z,18970.4277
2023-05-05T08:39:37.168Z,18974.6426
2023-05-05T08:40:45.049Z,18970.2852
2023-05-05T08:41:53.152Z,18979.9277
2023-05-05T08:43:01.203Z,18986.0000
2023-05-05T08:44:09.479Z,18977.6426
2023-05-05T08:45:17.543Z,18965.6426
2023-05-05T08:46:25.482Z,18968.6426
2023-05-05T08:47:33.555Z,18967.9277
2023-05-05T08:48:41.741Z,18964.2148
2023-05-05T08:49:49.715Z,18954.0723
2023-05-05T08:50:59.542Z,18954.5000
2023-05-05T08:52:10.647Z,18950.6660
2023-05-05T08:53:18.668Z,18955.3574
2023-05-05T08:54:26.637Z,18954.1426
2023-05-05T08:55:34.690Z,18951.8574
2023-05-05T08:56:42.751Z,18948.4277
2023-05-05T08:57:51.110Z,18952.1426
2023-05-05T08:58:58.965Z,18957.4277
2023-05-05T09:00:07.008Z,18950.3574
2023-05-05T09:01:15.159Z,18948.3574
2023-05-05T09:02:23.209Z,18943.0000
2023-05-05T09:03:31.190Z,18942.1426
2023-05-05T09:04:39.282Z,18946.7148
2023-05-05T09:05:47.277Z,18950.5723
2023-05-05T09:06:55.308Z,18946.2852
2023-05-05T09:08:03.584Z,18950.0723
2023-05-05T09:09:11.406Z,18947.7852
2023-05-05T09:10:19.452Z,18941.3574
2023-05-05T09:11:27.531Z,18946.3574
2023-05-05T09:12:35.664Z,18946.9277
2023-05-05T09:13:43.892Z,18942.1426
2023-05-05T09:14:51.770Z,18937.6426
2023-05-05T09:15:59.894Z,18941.5723
2023-05-05T09:17:07.981Z,18946.2852
2023-05-05T09:18:15.956Z,18937.6426
2023-05-05T09:19:23.974Z,18942.8574
2023-05-05T09:20:32.234Z,18948.7148
2023-05-05T09:21:40.117Z,18950.4277
2023-05-05T09:22:48.174Z,18947.4277
2023-05-05T09:23:58.535Z,18946.0723
2023-05-05T09:25:09.251Z,18947.5996
2023-05-05T09:26:17.214Z,18942.0000
2023-05-05T09:27:25.264Z,18939.4277
2023-05-05T09:28:33.264Z,18942.7852
2023-05-05T09:29:41.493Z,18942.2852
2023-05-05T09:30:49.493Z,18940.8574
2023-05-05T09:31:57.533Z,18941.9277
2023-05-05T09:33:05.667Z,18946.7148
2023-05-05T09:34:13.630Z,18946.5000
2023-05-05T09:35:21.727Z,18945.5000
2023-05-05T09:36:29.700Z,18944.5000
2023-05-05T09:37:37.736Z,18943.7852
2023-05-05T09:38:45.819Z,18944.2148
2023-05-05T09:39:53.929Z,18946.2852
2023-05-05T09:41:02.136Z,18945.1426
2023-05-05T09:42:10.095Z,18946.1426
2023-05-05T09:43:18.163Z,18940.1426
2023-05-05T09:44:26.358Z,18945.8574
2023-05-05T09:45:34.286Z,18944.5000
2023-05-05T09:46:42.515Z,18941.2852
2023-05-05T09:47:50.652Z,18939.5000
2023-05-05T09:48:58.503Z,18949.2148
2023-05-05T09:50:06.696Z,18955.9277
2023-05-05T09:51:14.449Z,18957.0723
2023-05-05T09:52:22.546Z,18952.9277
2023-05-05T09:53:30.556Z,18943.9277
2023-05-05T09:54:38.790Z,18942.7148
2023-05-05T09:55:46.832Z,18933.2148
2023-05-05T09:56:54.827Z,18925.8574
2023-05-05T09:58:02.985Z,18923.7852
2023-05-05T09:59:11.098Z,18922.4277
2023-05-05T10:00:18.923Z,18919.0000
2023-05-05T10:01:27.162Z,18913.2148
2023-05-05T10:02:35.146Z,18903.0723
2023-05-05T10:03:43.265Z,18896.1426
2023-05-05T10:04:51.259Z,18892.3574
2023-05-05T10:05:59.208Z,18886.7852
2023-05-05T10:07:07.263Z,18880.1426
2023-05-05T10:08:15.342Z,18876.7852
2023-05-05T10:09:23.503Z,18865.7852
2023-05-05T10:10:31.610Z,18844.4277
2023-05-05T10:11:39.552Z,18829.6426
2023-05-05T10:12:47.782Z,18812.7148
2023-05-05T10:13:55.773Z,18802.5723
2023-05-05T10:15:03.809Z,18801.5723
2023-05-05T10:16:12.022Z,18795.0723
2023-05-05T10:17:19.888Z,18787.7852
2023-05-05T10:18:27.967Z,18789.4277
2023-05-05T10:19:36.006Z,18794.0723
2023-05-05T10:20:44.024Z,18790.2148
2023-05-05T10:21:52.080Z,18783.2852
2023-05-05T10:23:00.148Z,18772.7148
2023-05-05T10:24:08.245Z,18767.1426
2023-05-05T10:25:16.308Z,18758.8574
2023-05-05T10:26:24.466Z,18753.7148
2023-05-05T10:27:32.524Z,18742.8574
2023-05-05T10:28:40.540Z,18742.7852
2023-05-05T10:29:48.633Z,18746.0723
2023-05-05T10:30:56.704Z,18747.2148
2023-05-05T10:32:21.456Z,18744.0000
2023-05-05T10:33:30.213Z,18743.1328
2023-05-05T10:34:30.491Z,18742.1992
2023-05-05T10:35:38.660Z,18745.2148
2023-05-05T10:36:46.787Z,18746.6426
2023-05-05T10:37:54.826Z,18745.7148
2023-05-05T10:39:02.826Z,18748.8574
2023-05-05T10:40:11.241Z,18753.7852
2023-05-05T10:41:18.979Z,18754.9277
2023-05-05T10:42:27.082Z,18752.7852
2023-05-05T10:43:35.116Z,18751.9277
2023-05-05T10:44:43.116Z,18757.5000
2023-05-05T10:45:51.243Z,18751.5000
2023-05-05T10:46:59.172Z,18746.1426
2023-05-05T10:48:07.247Z,18738.7148
2023-05-05T10:49:15.277Z,18716.5723
2023-05-05T10:50:23.390Z,18707.2852
2023-05-05T10:51:40.094Z,18697.6426
2023-05-05T10:52:44.517Z,18687.2676
2023-05-05T10:53:52.522Z,18675.9277
2023-05-05T10:55:00.509Z,18665.2852
2023-05-05T10:56:08.722Z,18657.2148
2023-05-05T10:57:16.735Z,18645.3574
2023-05-05T10:58:24.723Z,18627.3574
2023-05-05T10:59:32.845Z,18616.2852
2023-05-05T11:00:40.814Z,18610.0000
2023-05-05T11:01:48.838Z,18606.0000
2023-05-05T11:02:56.999Z,18601.5000
2023-05-05T11:04:05.105Z,18602.2852
2023-05-05T11:05:13.102Z,18607.0723
2023-05-05T11:06:21.119Z,18602.6426
2023-05-05T11:07:29.309Z,18607.6426
2023-05-05T11:08:37.557Z,18606.7852
2023-05-05T11:09:45.440Z,18610.2852
2023-05-05T11:10:53.494Z,18625.2852
2023-05-05T11:12:01.596Z,18642.7852
2023-05-05T11:13:09.590Z,18657.8574
2023-05-05T11:14:17.640Z,18667.5000
2023-05-05T11:15:25.633Z,18674.0000
2023-05-05T11:16:33.726Z,18691.7148
2023-05-05T11:17:41.832Z,18704.1426
2023-05-05T11:18:49.968Z,18723.5000
2023-05-05T11:19:57.984Z,18738.0723
2023-05-05T11:21:06.003Z,18744.2148
2023-05-05T11:22:14.106Z,18745.8574
2023-05-05T11:23:22.216Z,18756.4277
2023-05-05T11:24:30.274Z,18763.5723
2023-05-05T11:25:38.404Z,18770.9277
2023-05-05T11:26:46.361Z,18769.2148
2023-05-05T11:27:54.444Z,18777.1426
2023-05-05T11:29:02.501Z,18785.7852
2023-05-05T11:30:10.705Z,18787.1426
2023-05-05T11:31:18.605Z,18791.7148
2023-05-05T11:32:26.633Z,18797.2148
2023-05-05T11:33:34.785Z,18807.7148
2023-05-05T11:34:42.772Z,18812.2148
2023-05-05T11:35:50.847Z,18810.3574
2023-05-05T11:36:58.948Z,18806.1426
2023-05-05T11:38:07.036Z,18822.4277
2023-05-05T11:39:15.049Z,18829.4277
2023-05-05T11:40:23.129Z,18825.7148
2023-05-05T11:41:31.230Z,18823.0723
2023-05-05T11:42:39.290Z,18813.4277
2023-05-05T11:43:47.274Z,18807.1426
2023-05-05T11:44:55.301Z,18806.7148
2023-05-05T11:46:03.396Z,18811.7852
2023-05-05T11:47:11.408Z,18818.8574
2023-05-05T11:48:19.770Z,18825.6426
2023-05-05T11:49:27.691Z,18819.6426
2023-05-05T11:50:35.855Z,18810.8574
2023-05-05T11:51:43.787Z,18796.1426
2023-05-05T11:52:51.848Z,18780.2148
2023-05-05T11:53:59.904Z,18767.7852
2023-05-05T11:55:07.972Z,18750.7148
2023-05-05T11:56:16.102Z,18744.0723
2023-05-05T11:57:24.245Z,18735.1426
2023-05-05T11:58:32.205Z,18734.8574
2023-05-05T11:59:40.086Z,18724.6426
2023-05-05T12:00:48.147Z,18732.3574
2023-05-05T12:01:56.213Z,18742.0000
2023-05-05T12:03:04.522Z,18748.2148
2023-05-05T12:04:12.861Z,18754.8574
2023-05-05T12:05:20.546Z,18762.2852
2023-05-05T12:06:28.610Z,18773.0000
2023-05-05T12:07:36.631Z,18777.2148
2023-05-05T12:08:44.777Z,18778.5000
2023-05-05T12:09:52.791Z,18778.5000
2023-05-05T12:11:01.009Z,18774.3574
2023-05-05T12:12:08.974Z,18758.0723
2023-05-05T12:13:17.131Z,18742.7148
2023-05-05T12:14:24.980Z,18733.8574
2023-05-05T12:15:32.996Z,18725.1426
2023-05-05T12:16:41.271Z,18716.6426
2023-05-05T12:17:49.280Z,18706.2148
2023-05-05T12:18:57.408Z,18695.8574
2023-05-05T12:20:05.592Z,18675.3574
2023-05-05T12:21:13.482Z,18673.4277
2023-05-05T12:22:21.539Z,18670.1426
2023-05-05T12:23:29.641Z,18671.9277
2023-05-05T12:24:37.624Z,18670.4277
2023-05-05T12:25:45.721Z,18672.2852
2023-05-05T12:26:53.826Z,18672.7148
2023-05-05T12:28:02.036Z,18677.6426
2023-05-05T12:29:09.844Z,18671.7852
2023-05-05T12:30:17.929Z,18664.9277
2023-05-05T12:31:25.953Z,18659.8574
2023-05-05T12:32:34.259Z,18648.2852
2023-05-05T12:33:42.240Z,18637.5723
2023-05-05T12:34:50.308Z,18618.7148
2023-05-05T12:35:58.480Z,18611.8574